Time;durP1;ratioP1;P1;durP2;ratioP2;P2;SDS_P1;SDS_P2;PMS_P1;PMS_P2;Temp;Humidity;BMP_temperature;BMP_pressure;BME280_temperature;BME280_humidity;BME280_pressure;Samples;Min_cycle;Max_cycle;Signal;HPM_P1;HPM_P2
2021/12/11 21:51:18;;;;;;;1.70;0.33;;;;;;;15.21;100.00;100453.88;2930537;36;20506;-63
2021/12/11 21:53:52;;;;;;;0.65;0.65;;;;;;;15.20;100.00;100444.41;2819698;36;20303;-64
2021/12/11 21:56:23;;;;;;;0.20;0.20;;;;;;;15.16;100.00;100450.84;2528285;47;5000127;-64
2021/12/11 21:58:56;;;;;;;0.85;0.43;;;;;;;14.96;100.00;100451.66;2618274;47;20176;-65
2021/12/11 22:01:34;;;;;;;4.20;0.45;;;;;;;14.98;100.00;100441.88;2618665;47;20176;-65
2021/12/11 22:04:08;;;;;;;0.10;0.10;;;;;;;14.94;100.00;100445.72;2619409;47;20157;-65
2021/12/11 22:06:45;;;;;;;0.20;0.20;;;;;;;14.93;100.00;100451.88;2529385;36;5000001;-64
2021/12/11 22:09:19;;;;;;;0.82;0.82;;;;;;;14.88;100.00;100438.41;2618789;54;20160;-64
2021/12/11 22:11:51;;;;;;;0.75;0.75;;;;;;;14.92;100.00;100431.97;2618411;46;20153;-64
2021/12/11 22:14:23;;;;;;;2.07;0.33;;;;;;;14.95;100.00;100431.69;2618409;48;20161;-63
2021/12/11 22:16:56;;;;;;;0.45;0.45;;;;;;;14.91;100.00;100420.69;2528380;36;5000323;-63
2021/12/11 22:19:28;;;;;;;7.43;1.90;;;;;;;15.00;100.00;100419.09;2618834;54;20154;-63
2021/12/11 22:22:02;;;;;;;0.83;0.40;;;;;;;14.99;100.00;100412.19;2618923;54;20154;-63
2021/12/11 22:24:34;;;;;;;0.10;0.10;;;;;;;15.00;100.00;100409.44;2619525;54;20157;-64
2021/12/11 22:27:09;;;;;;;0.20;0.20;;;;;;;15.09;100.00;100418.31;2618503;54;20157;-63
2021/12/11 22:29:43;;;;;;;0.10;0.10;;;;;;;15.20;100.00;100407.81;2528348;54;5000199;-63
2021/12/11 22:32:17;;;;;;;0.32;0.32;;;;;;;15.17;100.00;100396.75;2618475;54;20150;-64
2021/12/11 22:34:48;;;;;;;1.30;1.08;;;;;;;15.23;100.00;100384.03;2618994;54;20156;-63
2021/12/11 22:37:24;;;;;;;0.05;0.05;;;;;;;15.32;100.00;100380.63;2619553;54;20183;-63
2021/12/11 22:39:58;;;;;;;0.00;0.00;;;;;;;15.30;100.00;100385.16;2529345;54;4999928;-63
2021/12/11 22:42:34;;;;;;;4.17;1.73;;;;;;;15.21;100.00;100383.31;2619735;54;20149;-63
2021/12/11 22:45:09;;;;;;;2.10;0.85;;;;;;;15.16;100.00;100385.50;2619979;54;20157;-64
2021/12/11 22:47:42;;;;;;;0.20;0.20;;;;;;;15.19;100.00;100390.47;2620002;39;20220;-63
2021/12/11 22:50:17;;;;;;;1.80;1.13;;;;;;;15.19;100.00;100390.47;2529614;36;5000433;-64
2021/12/11 22:52:51;;;;;;;0.30;0.20;;;;;;;15.12;100.00;100391.94;2618440;54;20156;-64
2021/12/11 22:55:26;;;;;;;4.07;1.47;;;;;;;15.16;100.00;100380.28;2618755;54;20169;-64
2021/12/11 22:58:00;;;;;;;0.60;0.60;;;;;;;15.19;100.00;100385.25;2618513;54;20168;-63
2021/12/11 23:00:40;;;;;;;1.63;0.33;;;;;;;15.17;100.00;100366.22;2528328;36;5000195;-63
2021/12/11 23:03:14;;;;;;;0.22;0.22;;;;;;;15.12;100.00;100368.44;2618357;54;20287;-63
2021/12/11 23:05:45;;;;;;;0.32;0.32;;;;;;;15.13;100.00;100364.84;2618771;54;20161;-63
2021/12/11 23:08:20;;;;;;;0.57;0.43;;;;;;;15.10;100.00;100369.50;2618317;51;20711;-64
2021/12/11 23:10:53;;;;;;;0.00;0.00;;;;;;;15.10;100.00;100369.50;2618402;54;20173;-63
2021/12/11 23:13:30;;;;;;;0.00;0.00;;;;;;;15.05;100.00;100377.72;2618529;54;20157;-64
2021/12/11 23:16:06;;;;;;;0.20;0.20;;;;;;;14.97;100.00;100369.69;2618737;54;20795;-64
2021/12/11 23:18:47;;;;;;;0.00;0.00;;;;;;;15.03;100.00;100369.19;2618831;54;20149;-64
2021/12/11 23:21:23;;;;;;;0.20;0.20;;;;;;;14.99;100.00;100371.25;2528950;39;5000443;-63
2021/12/11 23:24:02;;;;;;;2.38;1.40;;;;;;;15.02;100.00;100371.91;2618262;54;20153;-64
2021/12/11 23:26:35;;;;;;;5.10;1.77;;;;;;;14.99;100.00;100373.84;2618464;54;20141;-64
2021/12/11 23:29:11;;;;;;;0.00;0.00;;;;;;;15.03;100.00;100371.81;2618799;54;20149;-64
2021/12/11 23:31:43;;;;;;;1.48;1.30;;;;;;;15.00;100.00;100369.47;2528442;36;5000463;-63
2021/12/11 23:34:18;;;;;;;0.73;0.73;;;;;;;15.00;100.00;100364.22;2618983;54;20152;-63
2021/12/11 23:36:52;;;;;;;0.17;0.17;;;;;;;14.99;100.00;100365.19;2618755;54;20654;-64
2021/12/11 23:39:29;;;;;;;2.03;1.27;;;;;;;14.97;100.00;100354.00;2619041;54;20153;-63
2021/12/11 23:42:03;;;;;;;1.17;1.13;;;;;;;14.85;100.00;100350.66;2619715;39;20596;-63
2021/12/11 23:44:36;;;;;;;1.30;1.10;;;;;;;14.76;100.00;100351.44;2528897;54;5000243;-64
2021/12/11 23:47:14;;;;;;;1.23;1.13;;;;;;;14.76;100.00;100346.22;2619613;54;20151;-64
2021/12/11 23:49:45;;;;;;;3.40;1.27;;;;;;;14.70;100.00;100345.88;2619871;54;20732;-63
2021/12/11 23:52:18;;;;;;;0.73;0.73;;;;;;;14.63;100.00;100350.78;2618988;47;20158;-63
2021/12/11 23:54:56;;;;;;;0.97;0.97;;;;;;;14.69;100.00;100349.44;2529018;36;5000023;-64
2021/12/11 23:57:30;;;;;;;0.10;0.10;;;;;;;14.75;100.00;100349.78;2619218;54;20157;-63
